createdAt,value
2023-01-26T00:02:29.630Z,99786.84
2023-01-26T00:07:33.117Z,99779.64
2023-01-26T00:12:36.477Z,99764.57
2023-01-26T00:17:40.034Z,99756.37
2023-01-26T00:22:43.975Z,99749.02
2023-01-26T00:27:47.970Z,99754.80
2023-01-26T00:32:51.309Z,99748.48
2023-01-26T00:37:55.075Z,99744.40
2023-01-26T00:42:59.504Z,99737.06
2023-01-26T00:48:02.954Z,99738.80
2023-01-26T00:53:06.410Z,99731.84
2023-01-26T00:58:10.316Z,99721.27
2023-01-26T01:03:13.610Z,99715.41
2023-01-26T01:08:17.049Z,99713.23
2023-01-26T01:13:20.351Z,99711.90
2023-01-26T01:18:23.917Z,99707.55
2023-01-26T01:23:30.057Z,99705.89
2023-01-26T01:28:35.266Z,99700.68
2023-01-26T01:33:41.497Z,99694.07
2023-01-26T01:38:46.270Z,99686.11
2023-01-26T01:43:51.222Z,99683.38
2023-01-26T01:49:15.280Z,99685.81
2023-01-26T01:54:23.476Z,99678.30
2023-01-26T01:59:27.155Z,99679.82
2023-01-26T02:04:33.037Z,99678.40
2023-01-26T02:09:59.198Z,99678.95
2023-01-26T02:15:04.243Z,99672.00
2023-01-26T02:20:34.584Z,99668.27
2023-01-26T02:26:03.836Z,99662.27
2023-01-26T02:31:10.769Z,99653.66
2023-01-26T02:36:26.243Z,99650.18
2023-01-26T02:41:51.003Z,99641.09
2023-01-26T02:47:26.739Z,99635.22
2023-01-26T02:52:33.845Z,99631.41
2023-01-26T02:57:42.603Z,99629.54
2023-01-26T03:02:48.332Z,99629.38
2023-01-26T03:07:52.026Z,99630.07
2023-01-26T03:12:56.483Z,99627.59
2023-01-26T03:18:27.229Z,99623.26
2023-01-26T03:24:53.058Z,99625.96
2023-01-26T03:29:57.985Z,99624.27
2023-01-26T03:35:03.814Z,99618.65
2023-01-26T03:40:29.609Z,99616.87
2023-01-26T03:45:51.997Z,99609.87
2023-01-26T03:51:15.722Z,99601.84
2023-01-26T03:56:23.221Z,99593.13
2023-01-26T04:01:28.359Z,99598.75
2023-01-26T04:06:55.667Z,99603.98
2023-01-26T04:11:59.834Z,99598.31
2023-01-26T04:17:23.312Z,99592.66
2023-01-26T04:22:26.872Z,99584.21
2023-01-26T04:27:35.180Z,99572.83
2023-01-26T04:32:40.413Z,99565.08
2023-01-26T04:37:44.481Z,99563.06
2023-01-26T04:42:48.192Z,99566.13
2023-01-26T04:47:52.395Z,99562.10
2023-01-26T04:52:56.263Z,99554.03
2023-01-26T04:57:59.973Z,99550.78
2023-01-26T05:03:08.953Z,99543.97
2023-01-26T05:08:14.716Z,99543.71
2023-01-26T05:13:20.728Z,99546.25
2023-01-26T05:18:50.660Z,99545.60
2023-01-26T05:24:08.729Z,99541.05
2023-01-26T05:29:30.608Z,99544.38
2023-01-26T05:34:34.087Z,99545.98
2023-01-26T05:39:37.867Z,99551.75
2023-01-26T05:44:43.225Z,99551.80
2023-01-26T05:49:49.316Z,99542.94
2023-01-26T05:55:01.223Z,99538.26
2023-01-26T06:00:06.419Z,99537.48
2023-01-26T06:05:17.759Z,99539.76
2023-01-26T06:10:22.042Z,99538.33
2023-01-26T06:15:35.925Z,99544.29
2023-01-26T06:20:40.184Z,99546.58
2023-01-26T06:25:43.758Z,99546.39
2023-01-26T06:30:47.351Z,99548.38
2023-01-26T06:35:51.901Z,99544.19
2023-01-26T06:40:55.919Z,99544.77
2023-01-26T06:45:59.848Z,99546.52
2023-01-26T06:51:06.553Z,99544.69
2023-01-26T06:56:09.900Z,99542.48
2023-01-26T07:01:34.195Z,99539.66
2023-01-26T07:06:37.922Z,99536.53
2023-01-26T07:11:41.299Z,99544.10
2023-01-26T07:16:44.944Z,99536.57
2023-01-26T07:21:48.993Z,99533.95
2023-01-26T07:26:52.539Z,99533.52
2023-01-26T07:31:55.828Z,99528.79
2023-01-26T07:36:59.978Z,99519.73
2023-01-26T07:42:05.202Z,99518.27
2023-01-26T07:47:22.397Z,99514.70
2023-01-26T07:52:26.603Z,99519.23
2023-01-26T07:57:32.158Z,99518.05
2023-01-26T08:02:36.435Z,99520.85
2023-01-26T08:07:41.750Z,99528.90
2023-01-26T08:12:47.735Z,99532.42
2023-01-26T08:17:54.349Z,99526.13
2023-01-26T08:23:00.389Z,99527.34
2023-01-26T08:28:06.518Z,99528.02
2023-01-26T08:33:10.500Z,99524.15
2023-01-26T08:38:47.356Z,99520.95
2023-01-26T08:45:06.068Z,99516.81
2023-01-26T08:50:14.214Z,99520.27
2023-01-26T08:55:18.319Z,99516.31
2023-01-26T09:00:23.454Z,99523.66
2023-01-26T09:05:28.590Z,99524.13
2023-01-26T09:10:34.142Z,99525.90
2023-01-26T09:15:38.267Z,99523.23
2023-01-26T09:20:42.741Z,99523.71
2023-01-26T09:25:47.062Z,99522.29
2023-01-26T09:30:52.820Z,99520.46
2023-01-26T09:35:56.687Z,99511.00
2023-01-26T09:41:15.860Z,99507.20
2023-01-26T09:46:24.705Z,99497.19
2023-01-26T09:51:45.135Z,99497.34
2023-01-26T09:56:48.592Z,99495.10
2023-01-26T10:02:21.259Z,99488.17
2023-01-26T10:07:27.844Z,99476.00
2023-01-26T10:12:37.221Z,99475.50
2023-01-26T10:18:03.713Z,99473.10
2023-01-26T10:23:18.564Z,99475.24
2023-01-26T10:28:35.330Z,99468.38
2023-01-26T10:33:47.163Z,99459.65
2023-01-26T10:38:53.233Z,99459.02
2023-01-26T10:43:59.343Z,99449.48
2023-01-26T10:49:24.954Z,99442.32
2023-01-26T10:54:29.558Z,99434.71
2023-01-26T10:59:43.913Z,99432.14
2023-01-26T11:05:10.353Z,99440.30
2023-01-26T11:10:36.244Z,99434.35
2023-01-26T11:15:44.900Z,99425.91
2023-01-26T11:21:00.504Z,99419.40
2023-01-26T11:26:34.088Z,99415.17
2023-01-26T11:31:48.062Z,99408.77
2023-01-26T11:37:01.281Z,99404.63
2023-01-26T11:42:43.557Z,99396.80
2023-01-26T11:48:08.379Z,99386.69
2023-01-26T11:53:43.486Z,99376.27
2023-01-26T11:58:55.428Z,99371.20
2023-01-26T12:04:01.487Z,99369.00
2023-01-26T12:09:27.704Z,99361.27
2023-01-26T12:14:47.294Z,99352.83
2023-01-26T12:20:24.682Z,99344.96
2023-01-26T12:25:41.992Z,99344.27
2023-01-26T12:30:58.018Z,99350.48
2023-01-26T12:36:40.481Z,99347.36
2023-01-26T12:42:05.505Z,99337.73
2023-01-26T12:47:36.607Z,99321.18
2023-01-26T12:52:51.737Z,99315.20
2023-01-26T12:58:06.511Z,99316.91
2023-01-26T13:03:24.943Z,99313.86
2023-01-26T13:08:31.957Z,99308.88
2023-01-26T13:13:56.249Z,99316.41
2023-01-26T13:19:02.296Z,99308.64
2023-01-26T13:24:32.365Z,99306.75
2023-01-26T13:29:51.952Z,99305.66
2023-01-26T13:35:05.401Z,99309.41
2023-01-26T13:40:22.026Z,99310.49
2023-01-26T13:45:57.764Z,99315.25
2023-01-26T13:51:03.827Z,99319.02
2023-01-26T13:56:22.884Z,99318.98
2023-01-26T14:01:26.806Z,99323.58
2023-01-26T14:06:31.786Z,99322.59
2023-01-26T14:11:36.787Z,99325.98
2023-01-26T14:16:40.957Z,99325.70
2023-01-26T14:21:56.622Z,99323.76
2023-01-26T14:27:02.971Z,99317.28
2023-01-26T14:32:16.332Z,99311.11
2023-01-26T14:37:21.340Z,99311.02
2023-01-26T14:42:25.456Z,99310.98
2023-01-26T14:47:31.300Z,99311.98
2023-01-26T14:52:40.041Z,99310.26
2023-01-26T14:57:43.698Z,99310.19
2023-01-26T15:02:50.487Z,99307.78
2023-01-26T15:08:02.490Z,99302.50
2023-01-26T15:13:08.790Z,99304.34
2023-01-26T15:18:14.320Z,99296.74
2023-01-26T15:23:36.716Z,99301.23
2023-01-26T15:28:41.720Z,99299.27
2023-01-26T15:33:50.041Z,99297.08
2023-01-26T15:38:58.413Z,99299.44
2023-01-26T15:44:03.241Z,99303.09
2023-01-26T15:49:07.862Z,99304.86
2023-01-26T15:54:13.234Z,99303.77
2023-01-26T15:59:19.015Z,99301.37
2023-01-26T16:04:23.525Z,99298.72
2023-01-26T16:09:26.804Z,99297.17
2023-01-26T16:14:30.079Z,99293.36
2023-01-26T16:19:35.594Z,99298.12
2023-01-26T16:24:40.503Z,99295.20
2023-01-26T16:29:43.735Z,99296.00
2023-01-26T16:34:46.943Z,99292.71
2023-01-26T16:39:50.350Z,99293.64
2023-01-26T16:44:53.603Z,99292.83
2023-01-26T16:49:56.820Z,99288.91
2023-01-26T16:55:00.227Z,99285.23
2023-01-26T17:00:04.890Z,99287.98
2023-01-26T17:05:14.398Z,99283.28
2023-01-26T17:10:21.286Z,99280.11
2023-01-26T17:15:25.590Z,99277.23
2023-01-26T17:20:29.355Z,99278.73
2023-01-26T17:25:32.701Z,99274.92
2023-01-26T17:30:36.024Z,99268.92
2023-01-26T17:35:39.247Z,99267.92
2023-01-26T17:40:42.742Z,99273.52
2023-01-26T17:45:47.475Z,99273.55
2023-01-26T17:50:51.720Z,99279.53
2023-01-26T17:55:56.271Z,99276.75
2023-01-26T18:01:00.326Z,99276.02
2023-01-26T18:06:05.536Z,99273.59
2023-01-26T18:11:12.775Z,99277.42
2023-01-26T18:16:19.844Z,99283.54
2023-01-26T18:21:27.602Z,99285.89
2023-01-26T18:26:35.204Z,99288.98
2023-01-26T18:31:41.718Z,99294.73
2023-01-26T18:36:45.650Z,99291.42
2023-01-26T18:41:49.528Z,99293.97
2023-01-26T18:46:53.438Z,99296.63
2023-01-26T18:51:57.766Z,99295.48
2023-01-26T18:57:02.678Z,99297.23
2023-01-26T19:02:08.008Z,99301.97
2023-01-26T19:07:12.903Z,99304.27
2023-01-26T19:12:18.385Z,99300.89
2023-01-26T19:17:22.498Z,99303.34
2023-01-26T19:22:27.228Z,99299.39
2023-01-26T19:27:33.143Z,99297.77
2023-01-26T19:32:37.497Z,99292.44
2023-01-26T19:37:41.313Z,99282.66
2023-01-26T19:42:45.343Z,99282.48
2023-01-26T19:47:49.098Z,99279.02
2023-01-26T19:52:53.294Z,99278.00
2023-01-26T19:57:57.328Z,99274.80
2023-01-26T20:03:03.785Z,99268.51
2023-01-26T20:08:07.430Z,99263.31
2023-01-26T20:13:12.191Z,99257.35
2023-01-26T20:18:15.842Z,99257.10
2023-01-26T20:23:22.733Z,99259.60
2023-01-26T20:28:27.357Z,99249.88
2023-01-26T20:33:31.021Z,99251.55
2023-01-26T20:38:36.802Z,99246.88
2023-01-26T20:43:46.481Z,99248.25
2023-01-26T20:49:02.581Z,99245.21
2023-01-26T20:54:07.533Z,99238.78
2023-01-26T20:59:13.199Z,99233.91
2023-01-26T21:04:18.417Z,99232.33
2023-01-26T21:09:24.543Z,99231.84
2023-01-26T21:14:28.869Z,99236.02
2023-01-26T21:19:32.477Z,99237.38
2023-01-26T21:24:36.137Z,99248.27
2023-01-26T21:29:40.907Z,99247.19
2023-01-26T21:34:44.575Z,99244.23
2023-01-26T21:39:49.759Z,99236.42
2023-01-26T21:45:14.781Z,99237.00
2023-01-26T21:50:40.917Z,99230.67
2023-01-26T21:55:46.771Z,99227.21
2023-01-26T22:00:52.448Z,99226.64
2023-01-26T22:05:57.184Z,99214.23
2023-01-26T22:11:02.454Z,99215.84
2023-01-26T22:16:08.867Z,99218.14
2023-01-26T22:21:16.133Z,99219.96
2023-01-26T22:26:22.469Z,99218.10
2023-01-26T22:31:28.982Z,99216.93
2023-01-26T22:36:33.527Z,99214.33
2023-01-26T22:41:37.912Z,99210.68
2023-01-26T22:46:41.525Z,99213.03
2023-01-26T22:51:44.756Z,99210.29
2023-01-26T22:56:48.328Z,99209.08
2023-01-26T23:01:51.738Z,99208.69
2023-01-26T23:06:55.244Z,99204.14
2023-01-26T23:12:01.817Z,99203.88
2023-01-26T23:17:05.942Z,99203.92
2023-01-26T23:22:09.420Z,99198.63
2023-01-26T23:27:13.567Z,99196.86
2023-01-26T23:32:17.062Z,99195.39
2023-01-26T23:37:22.723Z,99195.91
2023-01-26T23:42:26.099Z,99198.73
2023-01-26T23:47:29.752Z,99204.21
2023-01-26T23:52:33.568Z,99208.33
2023-01-26T23:57:36.923Z,99208.38
